createdAt,value
2022-09-16T00:00:51.717Z,13.67
2022-09-16T00:03:18.822Z,13.64
2022-09-16T00:05:47.765Z,13.58
2022-09-16T00:08:15.585Z,13.60
2022-09-16T00:10:43.616Z,13.60
2022-09-16T00:13:11.431Z,13.60
2022-09-16T00:15:41.536Z,13.62
2022-09-16T00:18:07.896Z,13.70
2022-09-16T00:20:34.406Z,13.68
2022-09-16T00:23:00.857Z,13.65
2022-09-16T00:25:27.397Z,13.64
2022-09-16T00:27:53.890Z,13.71
2022-09-16T00:30:21.058Z,13.69
2022-09-16T00:32:47.424Z,13.61
2022-09-16T00:35:13.908Z,13.59
2022-09-16T00:37:40.335Z,13.55
2022-09-16T00:40:07.090Z,13.64
2022-09-16T00:42:38.939Z,13.69
2022-09-16T00:45:16.239Z,13.86
2022-09-16T00:47:54.004Z,14.02
2022-09-16T00:50:28.375Z,13.93
2022-09-16T00:52:56.550Z,13.87
2022-09-16T00:55:28.189Z,13.84
2022-09-16T00:57:59.604Z,13.86
2022-09-16T01:00:27.163Z,13.86
2022-09-16T01:02:53.664Z,13.91
2022-09-16T01:05:23.469Z,13.89
2022-09-16T01:07:51.919Z,13.75
2022-09-16T01:10:22.501Z,13.77
2022-09-16T01:12:54.921Z,13.97
2022-09-16T01:15:31.454Z,14.10
2022-09-16T01:18:13.214Z,14.17
2022-09-16T01:20:49.707Z,14.17
2022-09-16T01:23:51.557Z,14.12
2022-09-16T01:26:53.011Z,14.04
2022-09-16T01:29:56.841Z,13.92
2022-09-16T01:32:34.727Z,13.95
2022-09-16T01:35:10.274Z,14.11
2022-09-16T01:38:02.438Z,14.00
2022-09-16T01:40:41.529Z,13.86
2022-09-16T01:43:40.218Z,13.73
2022-09-16T01:46:16.707Z,13.75
2022-09-16T01:48:57.037Z,13.70
2022-09-16T01:51:32.038Z,13.64
2022-09-16T01:54:11.881Z,13.52
2022-09-16T01:56:53.967Z,13.36
2022-09-16T01:59:42.468Z,13.19
2022-09-16T02:02:19.655Z,13.12
2022-09-16T02:04:51.414Z,13.13
2022-09-16T02:07:21.600Z,13.14
2022-09-16T02:10:08.713Z,13.16
2022-09-16T02:12:39.277Z,13.17
2022-09-16T02:15:11.348Z,13.21
2022-09-16T02:17:47.555Z,13.09
2022-09-16T02:20:19.739Z,13.10
2022-09-16T02:22:54.817Z,13.04
2022-09-16T02:25:22.986Z,13.05
2022-09-16T02:27:52.093Z,13.12
2022-09-16T02:30:22.023Z,13.14
2022-09-16T02:32:58.585Z,13.10
2022-09-16T02:35:27.026Z,13.15
2022-09-16T02:37:59.770Z,13.17
2022-09-16T02:40:35.913Z,13.20
2022-09-16T02:43:03.068Z,13.19
2022-09-16T02:45:48.551Z,13.19
2022-09-16T02:48:31.657Z,13.32
2022-09-16T02:51:10.075Z,13.21
2022-09-16T02:53:58.333Z,13.10
2022-09-16T02:56:31.245Z,13.02
2022-09-16T02:58:58.151Z,13.02
2022-09-16T03:01:25.986Z,13.02
2022-09-16T03:03:55.851Z,12.99
2022-09-16T03:06:25.535Z,13.07
2022-09-16T03:08:56.196Z,13.00
2022-09-16T03:11:40.114Z,12.88
2022-09-16T03:14:18.741Z,12.93
2022-09-16T03:16:55.135Z,12.97
2022-09-16T03:19:32.973Z,12.97
2022-09-16T03:22:05.371Z,13.01
2022-09-16T03:24:54.570Z,13.08
2022-09-16T03:27:31.802Z,13.08
2022-09-16T03:30:08.829Z,13.11
2022-09-16T03:32:41.303Z,13.04
2022-09-16T03:35:25.767Z,12.85
2022-09-16T03:37:58.302Z,12.81
2022-09-16T03:40:26.743Z,12.75
2022-09-16T03:42:53.203Z,12.70
2022-09-16T03:45:22.705Z,12.68
2022-09-16T03:47:51.762Z,12.71
2022-09-16T03:50:20.088Z,12.61
2022-09-16T03:52:47.452Z,12.55
2022-09-16T03:55:13.923Z,12.55
2022-09-16T03:57:40.311Z,12.51
2022-09-16T04:00:08.467Z,12.47
2022-09-16T04:02:40.549Z,12.56
2022-09-16T04:05:08.811Z,12.69
2022-09-16T04:07:35.925Z,12.73
2022-09-16T04:10:03.154Z,12.82
2022-09-16T04:12:29.700Z,12.89
2022-09-16T04:14:56.251Z,12.90
2022-09-16T04:17:23.221Z,12.84
2022-09-16T04:19:51.147Z,12.80
2022-09-16T04:22:17.509Z,12.75
2022-09-16T04:24:43.927Z,12.73
2022-09-16T04:27:10.299Z,12.68
2022-09-16T04:29:36.892Z,12.73
2022-09-16T04:32:03.493Z,12.67
2022-09-16T04:34:30.137Z,12.65
2022-09-16T04:36:56.531Z,12.52
2022-09-16T04:39:23.045Z,12.45
2022-09-16T04:41:49.411Z,12.38
2022-09-16T04:44:16.022Z,12.35
2022-09-16T04:46:42.474Z,12.45
2022-09-16T04:49:09.072Z,12.49
2022-09-16T04:51:35.441Z,12.50
2022-09-16T04:54:01.924Z,12.49
2022-09-16T04:56:31.566Z,12.55
2022-09-16T04:59:03.532Z,12.61
2022-09-16T05:01:32.514Z,12.63
2022-09-16T05:04:02.371Z,12.64
2022-09-16T05:06:35.334Z,12.74
2022-09-16T05:09:02.756Z,12.81
2022-09-16T05:11:31.986Z,12.89
2022-09-16T05:13:59.524Z,12.94
2022-09-16T05:16:25.928Z,13.04
2022-09-16T05:18:55.585Z,12.97
2022-09-16T05:21:24.339Z,12.87
2022-09-16T05:23:52.513Z,12.80
2022-09-16T05:26:24.882Z,12.77
2022-09-16T05:28:52.472Z,12.72
2022-09-16T05:31:24.414Z,12.69
2022-09-16T05:34:02.143Z,12.59
2022-09-16T05:36:31.163Z,12.65
2022-09-16T05:39:22.265Z,12.56
2022-09-16T05:41:45.277Z,12.62
2022-09-16T05:44:12.149Z,12.78
2022-09-16T05:46:40.633Z,12.84
2022-09-16T05:49:07.969Z,12.86
2022-09-16T05:51:34.512Z,12.75
2022-09-16T05:54:00.908Z,12.82
2022-09-16T05:56:30.033Z,12.81
2022-09-16T05:58:59.535Z,12.79
2022-09-16T06:01:34.636Z,12.76
2022-09-16T06:04:03.172Z,12.77
2022-09-16T06:06:34.028Z,12.68
2022-09-16T06:09:08.036Z,12.76
2022-09-16T06:11:38.334Z,12.71
2022-09-16T06:14:06.021Z,12.76
2022-09-16T06:16:33.067Z,12.74
2022-09-16T06:19:01.705Z,12.80
2022-09-16T06:21:29.106Z,12.91
2022-09-16T06:23:56.671Z,13.00
2022-09-16T06:26:26.074Z,12.94
2022-09-16T06:28:53.548Z,12.97
2022-09-16T06:31:23.435Z,12.93
2022-09-16T06:33:50.880Z,13.00
2022-09-16T06:36:23.590Z,12.96
2022-09-16T06:38:51.229Z,13.00
2022-09-16T06:41:19.740Z,13.04
2022-09-16T06:43:47.059Z,13.27
2022-09-16T06:46:19.866Z,13.37
2022-09-16T06:48:50.111Z,13.29
2022-09-16T06:51:22.832Z,13.16
2022-09-16T06:53:50.206Z,13.23
2022-09-16T06:56:20.498Z,13.33
2022-09-16T06:58:49.207Z,13.34
2022-09-16T07:01:28.086Z,13.28
2022-09-16T07:03:56.638Z,13.24
2022-09-16T07:06:38.149Z,13.16
2022-09-16T07:09:11.279Z,13.28
2022-09-16T07:11:37.758Z,13.44
2022-09-16T07:14:04.939Z,13.64
2022-09-16T07:16:31.460Z,13.76
2022-09-16T07:19:01.167Z,13.86
2022-09-16T07:21:30.102Z,13.92
2022-09-16T07:24:02.509Z,14.02
2022-09-16T07:26:31.197Z,13.98
2022-09-16T07:29:00.706Z,14.05
2022-09-16T07:31:29.428Z,14.17
2022-09-16T07:34:02.847Z,14.14
2022-09-16T07:36:33.653Z,14.16
2022-09-16T07:39:00.572Z,14.17
2022-09-16T07:41:29.797Z,14.18
2022-09-16T07:43:59.061Z,14.24
2022-09-16T07:46:27.761Z,14.28
2022-09-16T07:48:55.145Z,14.32
2022-09-16T07:51:24.066Z,14.43
2022-09-16T07:53:59.458Z,14.33
2022-09-16T07:56:28.954Z,14.31
2022-09-16T07:58:56.751Z,14.41
2022-09-16T08:01:24.060Z,14.58
2022-09-16T08:03:51.140Z,14.82
2022-09-16T08:06:20.755Z,15.09
2022-09-16T08:08:48.192Z,15.31
2022-09-16T08:11:15.297Z,15.31
2022-09-16T08:13:43.112Z,15.23
2022-09-16T08:16:15.057Z,15.14
2022-09-16T08:18:42.604Z,15.14
2022-09-16T08:21:23.538Z,15.12
2022-09-16T08:23:50.552Z,15.12
2022-09-16T08:26:18.119Z,15.15
2022-09-16T08:29:07.352Z,15.26
2022-09-16T08:31:33.249Z,15.28
2022-09-16T08:33:59.894Z,15.31
2022-09-16T08:36:26.412Z,15.42
2022-09-16T08:38:56.133Z,15.65
2022-09-16T08:41:44.216Z,15.76
2022-09-16T08:44:35.347Z,15.78
2022-09-16T08:47:06.320Z,15.75
2022-09-16T08:49:35.545Z,15.89
2022-09-16T08:52:10.639Z,16.14
2022-09-16T08:54:47.866Z,16.33
2022-09-16T08:57:21.409Z,16.44
2022-09-16T08:59:59.513Z,16.41
2022-09-16T09:05:43.390Z,16.43
2022-09-16T09:08:19.326Z,16.62
2022-09-16T09:10:52.158Z,16.74
2022-09-16T09:13:22.198Z,16.69
2022-09-16T09:16:00.010Z,16.55
2022-09-16T09:19:03.120Z,16.40
2022-09-16T09:21:55.499Z,16.55
2022-09-16T09:24:28.081Z,16.53
2022-09-16T09:27:01.250Z,16.60
2022-09-16T09:30:00.872Z,16.89
2022-09-16T09:32:38.237Z,16.94
2022-09-16T09:35:49.723Z,16.64
2022-09-16T09:38:37.539Z,16.24
2022-09-16T09:41:32.684Z,15.81
2022-09-16T09:44:26.145Z,15.73
2022-09-16T09:46:58.004Z,15.82
2022-09-16T09:49:51.173Z,16.00
2022-09-16T09:52:23.289Z,16.24
2022-09-16T09:54:51.533Z,16.33
2022-09-16T09:57:31.612Z,16.22
2022-09-16T10:00:11.626Z,16.37
2022-09-16T10:02:46.238Z,16.62
2022-09-16T10:05:23.715Z,16.94
2022-09-16T10:07:57.329Z,17.17
2022-09-16T10:10:26.672Z,17.38
2022-09-16T10:12:54.305Z,17.89
2022-09-16T10:15:38.531Z,18.24
2022-09-16T10:18:25.105Z,18.52
2022-09-16T10:21:11.465Z,18.56
2022-09-16T10:23:39.158Z,18.75
2022-09-16T10:26:27.577Z,20.19
2022-09-16T10:29:03.442Z,22.61
2022-09-16T10:31:35.636Z,24.55
2022-09-16T10:34:04.515Z,25.77
2022-09-16T10:36:34.609Z,27.26
2022-09-16T10:39:05.263Z,27.41
2022-09-16T10:41:42.326Z,27.17
2022-09-16T10:44:28.285Z,28.48
2022-09-16T10:47:01.409Z,29.17
2022-09-16T10:49:38.760Z,30.29
2022-09-16T10:52:17.516Z,30.05
2022-09-16T10:54:44.891Z,29.85
2022-09-16T10:57:31.177Z,30.31
2022-09-16T11:00:14.536Z,30.82
2022-09-16T11:03:28.269Z,31.10
2022-09-16T11:06:06.933Z,30.16
2022-09-16T11:08:51.668Z,29.87
2022-09-16T11:11:37.641Z,31.24
2022-09-16T11:14:25.665Z,33.20
2022-09-16T11:17:15.288Z,33.64
2022-09-16T11:20:04.769Z,30.96
2022-09-16T11:22:54.096Z,28.04
2022-09-16T11:25:41.509Z,24.73
2022-09-16T11:28:32.887Z,22.39
2022-09-16T11:31:34.938Z,20.98
2022-09-16T11:34:16.592Z,19.44
2022-09-16T11:36:49.085Z,18.30
2022-09-16T11:39:49.529Z,17.63
2022-09-16T11:42:34.369Z,17.34
2022-09-16T11:45:19.137Z,17.88
2022-09-16T11:47:56.874Z,19.24
2022-09-16T11:50:49.421Z,19.90
2022-09-16T11:53:35.006Z,20.16
2022-09-16T11:56:10.821Z,21.41
2022-09-16T11:58:49.018Z,25.62
2022-09-16T12:01:46.710Z,29.91
2022-09-16T12:04:38.399Z,32.95
2022-09-16T12:07:17.963Z,33.70
2022-09-16T12:09:57.583Z,34.64
2022-09-16T12:12:29.540Z,32.83
2022-09-16T12:15:05.967Z,30.69
2022-09-16T12:17:37.078Z,29.32
2022-09-16T12:20:14.465Z,28.37
2022-09-16T12:23:30.219Z,27.46
2022-09-16T12:26:07.032Z,25.68
2022-09-16T12:28:55.354Z,24.19
2022-09-16T12:31:36.491Z,22.77
2022-09-16T12:34:27.670Z,21.02
2022-09-16T12:37:22.640Z,19.78
2022-09-16T12:39:50.308Z,19.02
2022-09-16T12:42:47.569Z,19.20
2022-09-16T12:45:51.095Z,21.32
2022-09-16T12:48:38.900Z,24.26
2022-09-16T12:51:30.354Z,26.55
2022-09-16T12:54:20.441Z,30.87
2022-09-16T12:57:15.852Z,32.86
2022-09-16T12:59:52.403Z,30.72
2022-09-16T13:02:22.660Z,27.73
2022-09-16T13:04:53.173Z,25.02
2022-09-16T13:07:27.364Z,23.64
2022-09-16T13:10:01.670Z,24.96
2022-09-16T13:12:40.977Z,26.11
2022-09-16T13:15:27.162Z,26.80
2022-09-16T13:17:54.295Z,27.69
2022-09-16T13:20:33.499Z,26.19
2022-09-16T13:23:07.343Z,23.96
2022-09-16T13:25:44.799Z,22.16
2022-09-16T13:28:39.123Z,20.64
2022-09-16T13:31:11.679Z,19.63
2022-09-16T13:33:45.278Z,19.15
2022-09-16T13:36:31.876Z,18.55
2022-09-16T13:39:01.886Z,18.20
2022-09-16T13:41:48.702Z,17.73
2022-09-16T13:44:33.509Z,17.47
2022-09-16T13:47:09.222Z,17.33
2022-09-16T13:49:47.568Z,17.21
2022-09-16T13:52:21.131Z,16.90
2022-09-16T13:55:10.101Z,16.65
2022-09-16T13:58:10.831Z,16.14
2022-09-16T14:00:49.671Z,15.58
2022-09-16T14:03:29.218Z,15.23
2022-09-16T14:05:58.635Z,14.90
2022-09-16T14:08:53.207Z,14.60
2022-09-16T14:11:31.670Z,14.31
2022-09-16T14:14:06.239Z,14.00
2022-09-16T14:16:34.794Z,13.81
2022-09-16T14:19:19.942Z,13.65
2022-09-16T14:21:46.797Z,13.29
2022-09-16T14:24:19.452Z,13.01
2022-09-16T14:26:53.463Z,12.82
2022-09-16T14:29:20.775Z,12.72
2022-09-16T14:31:48.240Z,12.54
2022-09-16T14:34:36.266Z,12.38
2022-09-16T14:37:05.410Z,12.27
2022-09-16T14:39:32.720Z,12.20
2022-09-16T14:42:07.283Z,12.08
2022-09-16T14:44:45.463Z,12.02
2022-09-16T14:47:29.458Z,11.97
2022-09-16T14:50:07.701Z,12.05
2022-09-16T14:52:35.797Z,11.98
2022-09-16T14:55:02.235Z,12.04
2022-09-16T14:57:30.716Z,12.05
2022-09-16T14:59:59.238Z,12.04
2022-09-16T15:02:34.248Z,12.02
2022-09-16T15:05:33.168Z,12.07
2022-09-16T15:08:14.208Z,12.17
2022-09-16T15:12:46.584Z,12.14
2022-09-16T15:13:36.511Z,12.10
2022-09-16T15:16:16.110Z,12.17
2022-09-16T15:18:52.485Z,12.19
2022-09-16T15:21:26.476Z,12.14
2022-09-16T15:23:56.589Z,12.21
2022-09-16T15:26:26.413Z,12.34
2022-09-16T15:31:46.600Z,12.30
2022-09-16T15:34:19.125Z,12.26
2022-09-16T15:36:47.522Z,12.35
2022-09-16T15:39:31.835Z,12.42
2022-09-16T15:42:18.077Z,12.51
2022-09-16T15:44:48.971Z,12.71
2022-09-16T15:47:33.991Z,12.80
2022-09-16T15:50:05.305Z,12.85
2022-09-16T15:52:34.899Z,12.97
2022-09-16T15:55:06.027Z,13.01
2022-09-16T15:57:38.148Z,13.03
2022-09-16T16:00:15.811Z,13.08
2022-09-16T16:02:50.489Z,13.17
2022-09-16T16:05:21.339Z,13.20
2022-09-16T16:07:51.605Z,13.21
2022-09-16T16:10:32.907Z,13.30
2022-09-16T16:13:01.187Z,13.37
2022-09-16T16:15:36.451Z,13.32
2022-09-16T16:18:05.670Z,13.47
2022-09-16T16:20:34.108Z,13.55
2022-09-16T16:23:01.629Z,13.61
2022-09-16T16:25:28.885Z,13.60
2022-09-16T16:27:55.517Z,13.63
2022-09-16T16:30:22.011Z,13.70
2022-09-16T16:32:48.810Z,13.80
2022-09-16T16:35:15.328Z,13.82
2022-09-16T16:37:46.457Z,13.85
2022-09-16T16:40:15.026Z,13.90
2022-09-16T16:42:43.301Z,13.93
2022-09-16T16:45:12.072Z,14.01
2022-09-16T16:47:38.395Z,14.03
2022-09-16T16:50:05.128Z,14.08
2022-09-16T16:52:31.476Z,14.14
2022-09-16T16:54:57.958Z,14.24
2022-09-16T16:57:24.390Z,14.29
2022-09-16T16:59:51.866Z,14.38
2022-09-16T17:02:18.295Z,14.48
2022-09-16T17:04:44.644Z,14.56
2022-09-16T17:07:27.901Z,14.59
2022-09-16T17:09:55.788Z,14.68
2022-09-16T17:12:22.260Z,14.73
2022-09-16T17:14:48.658Z,14.73
2022-09-16T17:17:15.293Z,14.69
2022-09-16T17:19:41.651Z,14.71
2022-09-16T17:22:08.095Z,14.75
2022-09-16T17:24:34.814Z,14.81
2022-09-16T17:27:01.920Z,14.84
2022-09-16T17:29:28.348Z,14.81
2022-09-16T17:31:57.017Z,14.84
2022-09-16T17:34:23.717Z,14.85
2022-09-16T17:36:50.192Z,14.85
2022-09-16T17:39:18.813Z,14.80
2022-09-16T17:41:47.442Z,14.81
2022-09-16T17:44:14.486Z,14.82
2022-09-16T17:46:42.662Z,14.76
2022-09-16T17:49:23.766Z,14.72
2022-09-16T17:51:51.824Z,14.75
2022-09-16T17:54:18.545Z,14.78
2022-09-16T17:56:45.228Z,14.75
2022-09-16T17:59:13.168Z,14.72
2022-09-16T18:01:39.913Z,14.71
2022-09-16T18:04:07.019Z,14.76
2022-09-16T18:06:39.910Z,14.78
2022-09-16T18:09:09.453Z,14.79
2022-09-16T18:11:36.986Z,14.78
2022-09-16T18:14:06.308Z,14.77
2022-09-16T18:16:32.895Z,14.73
2022-09-16T18:19:01.439Z,14.61
2022-09-16T18:21:30.121Z,14.55
2022-09-16T18:24:02.325Z,14.59
2022-09-16T18:26:29.651Z,14.65
2022-09-16T18:29:16.170Z,14.65
2022-09-16T18:31:45.257Z,14.65
2022-09-16T18:34:12.714Z,14.61
2022-09-16T18:36:39.736Z,14.54
2022-09-16T18:39:10.028Z,14.51
2022-09-16T18:41:38.564Z,14.57
2022-09-16T18:44:10.351Z,14.60
2022-09-16T18:46:37.802Z,14.63
2022-09-16T18:49:05.838Z,14.65
2022-09-16T18:51:36.894Z,14.65
2022-09-16T18:54:10.576Z,14.73
2022-09-16T18:56:38.816Z,14.77
2022-09-16T18:59:26.139Z,14.77
2022-09-16T19:01:54.699Z,14.72
2022-09-16T19:04:23.598Z,14.73
2022-09-16T19:06:53.143Z,14.78
2022-09-16T19:09:21.983Z,14.78
2022-09-16T19:11:49.458Z,14.76
2022-09-16T19:14:16.306Z,14.74
2022-09-16T19:16:44.580Z,14.69
2022-09-16T19:19:13.848Z,14.69
2022-09-16T19:21:41.972Z,14.70
2022-09-16T19:24:13.921Z,14.70
2022-09-16T19:26:42.171Z,14.68
2022-09-16T19:29:09.763Z,14.68
2022-09-16T19:31:39.214Z,14.65
2022-09-16T19:34:06.700Z,14.60
2022-09-16T19:36:34.612Z,14.55
2022-09-16T19:39:01.702Z,14.51
2022-09-16T19:41:34.755Z,14.47
2022-09-16T19:44:04.392Z,14.44
2022-09-16T19:46:34.649Z,14.34
2022-09-16T19:49:01.389Z,14.31
2022-09-16T19:51:28.312Z,14.29
2022-09-16T19:53:55.062Z,14.26
2022-09-16T19:56:27.009Z,14.20
2022-09-16T19:58:54.525Z,14.21
2022-09-16T20:01:27.107Z,14.23
2022-09-16T20:03:54.466Z,14.29
2022-09-16T20:06:41.247Z,14.33
2022-09-16T20:09:12.692Z,14.34
2022-09-16T20:11:41.965Z,14.38
2022-09-16T20:14:14.346Z,14.44
2022-09-16T20:16:40.958Z,14.41
2022-09-16T20:19:12.533Z,14.40
2022-09-16T20:21:39.299Z,14.41
2022-09-16T20:24:07.846Z,14.38
2022-09-16T20:26:35.523Z,14.37
2022-09-16T20:29:02.662Z,14.34
2022-09-16T20:31:32.499Z,14.31
2022-09-16T20:33:59.730Z,14.29
2022-09-16T20:36:29.752Z,14.26
2022-09-16T20:38:56.851Z,14.21
2022-09-16T20:41:24.979Z,14.20
2022-09-16T20:43:52.749Z,14.22
2022-09-16T20:46:22.147Z,14.20
2022-09-16T20:48:49.106Z,14.23
2022-09-16T20:51:18.272Z,14.26
2022-09-16T20:53:53.943Z,14.23
2022-09-16T20:56:21.165Z,14.24
2022-09-16T20:58:48.148Z,14.22
2022-09-16T21:01:19.137Z,14.23
2022-09-16T21:03:49.886Z,14.23
2022-09-16T21:06:16.248Z,14.24
2022-09-16T21:08:43.720Z,14.21
2022-09-16T21:11:13.177Z,14.22
2022-09-16T21:13:41.316Z,14.25
2022-09-16T21:16:09.529Z,14.27
2022-09-16T21:18:36.002Z,14.24
2022-09-16T21:21:07.939Z,14.21
2022-09-16T21:23:35.110Z,14.24
2022-09-16T21:26:04.154Z,14.22
2022-09-16T21:28:31.689Z,14.26
2022-09-16T21:31:02.329Z,14.27
2022-09-16T21:33:30.739Z,14.20
2022-09-16T21:35:57.092Z,14.12
2022-09-16T21:38:24.562Z,14.16
2022-09-16T21:40:55.974Z,14.16
2022-09-16T21:43:26.404Z,14.17
2022-09-16T21:45:53.801Z,14.16
2022-09-16T21:48:20.898Z,14.20
2022-09-16T21:50:48.388Z,14.27
2022-09-16T21:53:15.285Z,14.26
2022-09-16T21:55:41.963Z,14.29
2022-09-16T21:58:08.869Z,14.30
2022-09-16T22:00:36.506Z,14.30
2022-09-16T22:03:02.938Z,14.38
2022-09-16T22:05:30.373Z,14.40
2022-09-16T22:07:57.048Z,14.44
2022-09-16T22:10:23.460Z,14.44
2022-09-16T22:12:49.898Z,14.44
2022-09-16T22:15:16.746Z,14.50
2022-09-16T22:17:43.442Z,14.52
2022-09-16T22:20:11.620Z,14.48
2022-09-16T22:22:39.117Z,14.49
2022-09-16T22:25:05.639Z,14.50
2022-09-16T22:27:33.008Z,14.57
2022-09-16T22:29:59.542Z,14.63
2022-09-16T22:32:27.009Z,14.59
2022-09-16T22:34:53.527Z,14.51
2022-09-16T22:37:19.959Z,14.56
2022-09-16T22:39:46.332Z,14.63
2022-09-16T22:42:12.836Z,14.67
2022-09-16T22:44:39.179Z,14.64
2022-09-16T22:47:05.808Z,14.63
2022-09-16T22:49:32.137Z,14.69
2022-09-16T22:51:58.586Z,14.75
2022-09-16T22:54:24.971Z,14.76
2022-09-16T22:56:51.470Z,14.74
2022-09-16T22:59:20.081Z,14.74
2022-09-16T23:01:47.248Z,14.73
2022-09-16T23:04:13.715Z,14.78
2022-09-16T23:06:41.170Z,14.79
2022-09-16T23:09:08.784Z,14.81
2022-09-16T23:11:36.033Z,14.83
2022-09-16T23:14:04.034Z,14.84
2022-09-16T23:16:35.784Z,14.83
2022-09-16T23:19:05.332Z,14.87
2022-09-16T23:21:32.417Z,14.93
2022-09-16T23:24:01.259Z,14.98
2022-09-16T23:26:33.457Z,15.01
2022-09-16T23:29:01.904Z,14.97
2022-09-16T23:31:31.077Z,14.96
2022-09-16T23:33:58.144Z,14.96
2022-09-16T23:36:26.029Z,14.98
2022-09-16T23:38:53.820Z,15.00
2022-09-16T23:41:22.992Z,15.00
2022-09-16T23:43:50.169Z,15.02
2022-09-16T23:46:19.845Z,14.99
2022-09-16T23:48:47.225Z,15.00
2022-09-16T23:51:13.971Z,15.02
2022-09-16T23:53:42.208Z,15.02
2022-09-16T23:56:11.515Z,14.99
2022-09-16T23:58:38.464Z,14.98
